createdAt,value
2023-04-09T00:06:12.482Z,22.13
2023-04-09T00:12:54.696Z,23.55
2023-04-09T00:19:36.887Z,25.80
2023-04-09T00:26:19.135Z,24.83
2023-04-09T00:33:02.313Z,28.30
2023-04-09T00:39:44.749Z,26.42
2023-04-09T00:46:27.229Z,24.70
2023-04-09T00:53:10.433Z,24.83
2023-04-09T00:59:52.609Z,23.23
2023-04-09T01:06:58.899Z,21.38
2023-04-09T01:13:50.681Z,23.17
2023-04-09T01:20:40.807Z,22.23
2023-04-09T01:27:23.525Z,23.67
2023-04-09T01:34:13.062Z,25.70
2023-04-09T01:40:57.882Z,25.50
2023-04-09T01:47:40.700Z,25.40
2023-04-09T01:54:23.067Z,25.08
2023-04-09T02:01:38.179Z,25.05
2023-04-09T02:08:23.012Z,23.75
2023-04-09T02:15:07.468Z,21.35
2023-04-09T02:21:49.742Z,21.60
2023-04-09T02:28:31.919Z,21.13
2023-04-09T02:35:15.398Z,20.40
2023-04-09T02:41:58.032Z,21.55
2023-04-09T02:48:42.513Z,21.23
2023-04-09T02:55:25.163Z,21.27
2023-04-09T03:02:07.513Z,21.20
2023-04-09T03:08:49.927Z,18.67
2023-04-09T03:15:32.398Z,16.90
2023-04-09T03:22:15.324Z,16.73
2023-04-09T03:28:57.878Z,17.15
2023-04-09T03:35:40.180Z,14.07
2023-04-09T03:42:22.699Z,13.30
2023-04-09T03:49:05.315Z,13.65
2023-04-09T03:55:55.718Z,14.77
2023-04-09T04:02:41.872Z,16.50
2023-04-09T04:09:25.462Z,16.30
2023-04-09T04:16:11.783Z,17.83
2023-04-09T04:22:56.269Z,19.90
2023-04-09T04:29:40.090Z,19.52
2023-04-09T04:36:37.818Z,23.48
2023-04-09T04:43:21.492Z,20.23
2023-04-09T04:50:07.515Z,26.53
2023-04-09T04:57:01.160Z,23.57
2023-04-09T05:03:50.325Z,22.05
2023-04-09T05:10:43.305Z,21.70
2023-04-09T05:17:26.614Z,20.98
2023-04-09T05:24:08.972Z,22.77
2023-04-09T05:30:51.414Z,21.70
2023-04-09T05:37:34.765Z,22.65
2023-04-09T05:44:17.092Z,21.08
2023-04-09T05:51:01.036Z,20.52
2023-04-09T05:57:45.479Z,20.17
2023-04-09T06:04:28.228Z,22.33
2023-04-09T06:11:14.168Z,21.88
2023-04-09T06:17:58.829Z,21.05
2023-04-09T06:31:23.708Z,19.42
2023-04-09T06:38:06.962Z,19.10
2023-04-09T06:44:49.112Z,18.80
2023-04-09T06:51:31.839Z,19.27
2023-04-09T06:58:14.096Z,18.83
2023-04-09T07:04:56.333Z,19.42
2023-04-09T07:11:38.489Z,19.27
2023-04-09T07:18:21.019Z,19.15
2023-04-09T07:25:03.153Z,21.58
2023-04-09T07:31:45.307Z,22.77
2023-04-09T07:38:30.261Z,22.65
2023-04-09T07:45:12.522Z,21.67
2023-04-09T07:51:54.756Z,19.33
2023-04-09T07:58:38.142Z,15.80
2023-04-09T08:05:20.487Z,14.32
2023-04-09T08:12:02.839Z,13.50
2023-04-09T08:18:45.815Z,13.23
2023-04-09T08:25:27.993Z,11.73
2023-04-09T08:32:10.317Z,9.80
2023-04-09T08:38:54.771Z,10.30
2023-04-09T08:45:40.298Z,7.55
2023-04-09T08:52:34.602Z,6.78
2023-04-09T08:59:18.650Z,5.60
2023-04-09T09:06:00.850Z,4.30
2023-04-09T09:12:43.165Z,4.38
2023-04-09T09:19:25.646Z,3.17
2023-04-09T09:26:24.701Z,4.82
2023-04-09T09:33:10.697Z,4.30
2023-04-09T09:39:53.227Z,5.57
2023-04-09T09:46:38.787Z,3.97
2023-04-09T09:53:27.310Z,2.60
2023-04-09T10:00:13.829Z,2.90
2023-04-09T10:06:57.957Z,3.67
2023-04-09T10:13:49.019Z,4.13
2023-04-09T10:20:43.884Z,5.47
2023-04-09T10:27:29.462Z,3.42
2023-04-09T10:34:14.885Z,3.72
2023-04-09T10:40:57.589Z,2.60
2023-04-09T10:47:42.838Z,2.08
2023-04-09T10:54:34.462Z,1.92
2023-04-09T11:01:22.819Z,3.10
2023-04-09T11:08:08.210Z,2.90
2023-04-09T11:14:50.861Z,3.13
2023-04-09T11:21:33.595Z,2.85
2023-04-09T11:28:18.166Z,5.97
2023-04-09T11:35:00.293Z,3.17
2023-04-09T11:41:43.567Z,4.18
2023-04-09T11:48:26.047Z,5.55
2023-04-09T11:55:12.187Z,2.78
2023-04-09T12:01:54.495Z,2.47
2023-04-09T12:08:37.580Z,3.70
2023-04-09T12:15:26.196Z,3.13
2023-04-09T12:22:08.406Z,2.83
2023-04-09T12:28:51.429Z,2.40
2023-04-09T12:35:34.636Z,4.88
2023-04-09T12:42:16.963Z,2.75
2023-04-09T12:48:59.219Z,2.40
2023-04-09T12:55:42.873Z,3.10
2023-04-09T13:02:26.336Z,3.13
2023-04-09T13:09:08.636Z,2.63
2023-04-09T13:15:51.013Z,3.35
2023-04-09T13:22:33.227Z,3.03
2023-04-09T13:29:15.636Z,2.95
2023-04-09T13:35:58.324Z,4.15
2023-04-09T13:42:40.718Z,3.15
2023-04-09T13:49:22.946Z,3.60
2023-04-09T13:56:05.639Z,2.50
2023-04-09T14:02:48.004Z,2.67
2023-04-09T14:09:30.688Z,3.10
2023-04-09T14:16:13.007Z,2.40
2023-04-09T14:22:55.311Z,2.63
2023-04-09T14:29:37.470Z,2.50
2023-04-09T14:36:19.602Z,2.20
2023-04-09T14:43:02.042Z,3.30
2023-04-09T14:49:44.226Z,1.90
2023-04-09T14:56:26.400Z,1.83
2023-04-09T15:03:08.836Z,2.33
2023-04-09T15:09:51.326Z,2.00
2023-04-09T15:16:37.341Z,2.30
2023-04-09T15:23:19.781Z,1.77
2023-04-09T15:30:02.135Z,2.28
2023-04-09T15:36:46.164Z,2.13
2023-04-09T15:43:28.556Z,1.83
2023-04-09T15:50:11.093Z,2.00
2023-04-09T15:56:53.290Z,1.83
2023-04-09T16:03:39.904Z,1.40
2023-04-09T16:10:22.175Z,1.30
2023-04-09T16:17:04.513Z,1.85
2023-04-09T16:23:46.927Z,1.70
2023-04-09T16:30:31.675Z,2.13
2023-04-09T16:43:56.337Z,1.73
2023-04-09T16:50:40.084Z,1.55
2023-04-09T16:57:22.278Z,2.10
2023-04-09T17:04:04.636Z,2.25
2023-04-09T17:10:47.015Z,2.10
2023-04-09T17:17:29.243Z,3.15
2023-04-09T17:24:11.655Z,2.63
2023-04-09T17:30:53.845Z,2.45
2023-04-09T17:37:36.679Z,66.93
2023-04-09T17:44:19.156Z,2.80
2023-04-09T17:51:01.394Z,4.57
2023-04-09T17:57:43.686Z,10.07
2023-04-09T18:04:27.064Z,3.92
2023-04-09T18:11:13.187Z,3.88
2023-04-09T18:17:56.170Z,3.78
2023-04-09T18:24:38.378Z,4.65
2023-04-09T18:31:20.674Z,2.30
2023-04-09T18:38:03.006Z,3.33
2023-04-09T18:44:45.790Z,2.60
2023-04-09T18:51:28.176Z,3.30
2023-04-09T18:58:15.304Z,2.97
2023-04-09T19:04:58.699Z,3.13
2023-04-09T19:11:41.086Z,2.75
2023-04-09T19:18:23.218Z,3.65
2023-04-09T19:25:07.653Z,5.10
2023-04-09T19:31:49.969Z,4.90
2023-04-09T19:38:32.170Z,4.32
2023-04-09T19:45:15.907Z,5.18
2023-04-09T19:51:58.052Z,6.10
2023-04-09T19:58:43.266Z,13.05
2023-04-09T20:12:10.167Z,8.75
2023-04-09T20:18:52.633Z,4.70
2023-04-09T20:25:36.684Z,3.72
2023-04-09T20:32:19.851Z,4.30
2023-04-09T20:39:02.151Z,4.13
2023-04-09T20:45:44.718Z,4.18
2023-04-09T20:52:30.920Z,3.72
2023-04-09T20:59:13.657Z,3.20
2023-04-09T21:05:55.977Z,4.10
2023-04-09T21:12:38.151Z,4.63
2023-04-09T21:19:20.435Z,4.80
2023-04-09T21:26:04.870Z,3.75
2023-04-09T21:32:47.135Z,4.43
2023-04-09T21:39:29.680Z,4.20
2023-04-09T21:46:12.208Z,5.47
2023-04-09T21:52:54.451Z,5.45
2023-04-09T21:59:36.770Z,4.80
2023-04-09T22:06:19.562Z,5.43
2023-04-09T22:13:01.726Z,6.20
2023-04-09T22:19:44.003Z,6.97
2023-04-09T22:26:26.632Z,7.63
2023-04-09T22:33:08.854Z,8.77
2023-04-09T22:39:51.015Z,8.52
2023-04-09T22:46:34.760Z,9.55
2023-04-09T22:53:20.865Z,8.45
2023-04-09T23:00:05.149Z,10.98
2023-04-09T23:06:47.329Z,11.10
2023-04-09T23:13:29.589Z,8.43
2023-04-09T23:20:14.781Z,7.18
2023-04-09T23:33:41.886Z,6.50
2023-04-09T23:40:24.027Z,6.60
2023-04-09T23:47:06.676Z,6.03
2023-04-09T23:53:49.425Z,7.63
